Clinton, NC (28328)

6:57 PM EST on December 03, 2016 (GMT -0500)
Sampson County | | Change Station

Elev 148 ft 34.98 °N, 78.36 °W | Updated 12 minutes ago

Haze
Haze
46 °F
Feels Like 46 °F
N
0
Wind Variable Wind from North

Today
High -- | Low -- °F
--% Chance of Precip.
Yesterday
High -- | Low -- °F
Precip. -- in
Pressure 30.26 in
Visibility 5.0 miles
Clouds Clear
Dew Point 36 °F
Humidity 70%
Rainfall 0.00 in
Snow Depth Not available.
7:05 AM 5:01 PM
Waxing Crescent, 18% visible
METAR KCTZ 032345Z AUTO 00000KT 5SM HZ CLR 08/03 A3026 RMK AO2 T00770025
Pressure 30.26 in
Visibility 5.0 miles
Clouds Clear
Dew Point 36 °F
Humidity 70%
Rainfall 0.00 in
Snow Depth Not available.
7:05 AM 5:01 PM
Waxing Crescent, 18% visible
METAR KCTZ 032345Z AUTO 00000KT 5SM HZ CLR 08/03 A3026 RMK AO2 T00770025

10-Day Weather Forecast

Almanac

Astronomy

Dec. 03, 2016 Rise Set
Actual Time
Civil Twilight
Nautical Twilight
Astronomical Twilight
Moon
Length of Visible Light
Length of Day
Tomorrow will be .
, % of the Moon is Illuminated

Today's Extremes

State Highs State Lows

Community

WunderPhotos

Upload Photos

1,955,536 photos uploaded!

WunderBlog® & News

Nearby

Air Quality

  Air Quality AQ Index Pollutant
Not available.

Snow Depth

Station Depth Elevation

Earthquake Activity

City Distance Mag. Time & Date
Minimum magnitude displayed is 2.5.

Coastal Water Temperatures

Place Temperature

Stations

Nearby Weather Stations

Station Location Temp. Windchill Dew Point Humidity Wind Precip. Elev Updated Type
                   

Watches & Warnings

There are currently no watches in effect.